createdAt,value
2023-05-05T00:00:27.451Z,45.74
2023-05-05T00:01:29.015Z,45.24
2023-05-05T00:02:31.195Z,44.95
2023-05-05T00:03:33.425Z,45.14
2023-05-05T00:04:35.016Z,45.79
2023-05-05T00:05:36.575Z,45.88
2023-05-05T00:06:38.137Z,45.06
2023-05-05T00:07:39.778Z,45.06
2023-05-05T00:08:41.969Z,45.83
2023-05-05T00:09:43.515Z,46.58
2023-05-05T00:10:45.714Z,45.60
2023-05-05T00:11:47.235Z,45.61
2023-05-05T00:12:48.969Z,45.30
2023-05-05T00:13:51.495Z,46.38
2023-05-05T00:14:53.099Z,46.20
2023-05-05T00:15:54.649Z,46.18
2023-05-05T00:16:56.913Z,46.83
2023-05-05T00:17:58.515Z,46.43
2023-05-05T00:19:00.295Z,46.22
2023-05-05T00:20:02.110Z,45.92
2023-05-05T00:21:04.534Z,46.70
2023-05-05T00:22:06.162Z,46.46
2023-05-05T00:23:07.690Z,45.97
2023-05-05T00:24:10.220Z,45.86
2023-05-05T00:25:11.903Z,45.98
2023-05-05T00:26:13.860Z,46.32
2023-05-05T00:27:15.386Z,45.85
2023-05-05T00:28:17.015Z,46.46
2023-05-05T00:29:18.589Z,45.75
2023-05-05T00:30:20.228Z,45.98
2023-05-05T00:31:21.816Z,45.97
2023-05-05T00:32:23.892Z,46.73
2023-05-05T00:33:26.054Z,46.34
2023-05-05T00:34:28.051Z,46.54
2023-05-05T00:35:29.612Z,46.78
2023-05-05T00:36:31.198Z,46.83
2023-05-05T00:37:32.982Z,47.01
2023-05-05T00:38:34.509Z,47.57
2023-05-05T00:39:36.068Z,46.84
2023-05-05T00:40:38.213Z,47.03
2023-05-05T00:41:39.781Z,46.41
2023-05-05T00:42:46.386Z,47.69
2023-05-05T00:43:48.548Z,48.03
2023-05-05T00:44:50.711Z,47.99
2023-05-05T00:46:04.527Z,48.08
2023-05-05T00:47:06.136Z,47.10
2023-05-05T00:48:07.772Z,46.65
2023-05-05T00:49:12.759Z,47.25
2023-05-05T00:50:24.915Z,47.33
2023-05-05T00:51:26.509Z,47.75
2023-05-05T00:52:28.465Z,47.28
2023-05-05T00:53:30.235Z,47.33
2023-05-05T00:54:35.172Z,47.64
2023-05-05T00:55:37.325Z,47.16
2023-05-05T00:56:38.839Z,46.86
2023-05-05T00:57:40.407Z,46.94
2023-05-05T00:58:42.402Z,47.16
2023-05-05T00:59:44.682Z,47.74
2023-05-05T01:00:46.730Z,47.48
2023-05-05T01:01:48.397Z,48.70
2023-05-05T01:02:50.099Z,49.09
2023-05-05T01:03:51.752Z,48.39
2023-05-05T01:04:53.950Z,49.18
2023-05-05T01:06:08.681Z,49.13
2023-05-05T01:07:29.896Z,49.37
2023-05-05T01:08:39.638Z,49.36
2023-05-05T01:10:11.083Z,48.80
2023-05-05T01:11:27.617Z,48.12
2023-05-05T01:12:57.619Z,48.82
2023-05-05T01:14:13.767Z,48.91
2023-05-05T01:15:35.180Z,48.53
2023-05-05T01:16:37.550Z,48.13
2023-05-05T01:17:43.901Z,48.60
2023-05-05T01:18:49.983Z,47.42
2023-05-05T01:20:12.566Z,47.90
2023-05-05T01:21:19.488Z,49.05
2023-05-05T01:22:23.439Z,48.45
2023-05-05T01:23:38.947Z,49.45
2023-05-05T01:25:08.847Z,49.11
2023-05-05T01:26:38.219Z,48.25
2023-05-05T01:28:00.625Z,48.02
2023-05-05T01:29:23.363Z,48.49
2023-05-05T01:31:18.996Z,49.16
2023-05-05T01:32:26.777Z,48.64
2023-05-05T01:33:31.491Z,47.90
2023-05-05T01:34:36.322Z,48.67
2023-05-05T01:35:40.710Z,48.84
2023-05-05T01:36:44.414Z,48.85
2023-05-05T01:38:12.569Z,48.57
2023-05-05T01:39:16.124Z,49.11
2023-05-05T01:40:20.913Z,49.90
2023-05-05T01:41:25.903Z,49.76
2023-05-05T01:42:27.548Z,49.80
2023-05-05T01:43:30.744Z,49.91
2023-05-05T01:44:33.231Z,50.28
2023-05-05T01:45:37.327Z,50.38
2023-05-05T01:46:39.419Z,50.14
2023-05-05T01:47:40.948Z,49.95
2023-05-05T01:48:42.974Z,49.55
2023-05-05T01:49:47.415Z,50.63
2023-05-05T01:50:49.009Z,50.35
2023-05-05T01:51:51.238Z,50.18
2023-05-05T01:52:53.252Z,50.18
2023-05-05T01:53:57.341Z,49.63
2023-05-05T01:54:59.130Z,49.54
2023-05-05T01:56:00.654Z,49.37
2023-05-05T01:57:03.531Z,49.58
2023-05-05T01:58:06.335Z,49.84
2023-05-05T01:59:07.925Z,49.48
2023-05-05T02:00:10.096Z,50.07
2023-05-05T02:01:12.207Z,50.46
2023-05-05T02:02:13.821Z,50.15
2023-05-05T02:03:15.738Z,49.87
2023-05-05T02:04:18.046Z,50.07
2023-05-05T02:05:21.965Z,50.07
2023-05-05T02:06:24.667Z,49.31
2023-05-05T02:07:26.330Z,49.71
2023-05-05T02:08:27.878Z,49.63
2023-05-05T02:09:29.589Z,49.19
2023-05-05T02:10:31.166Z,49.64
2023-05-05T02:11:32.788Z,50.61
2023-05-05T02:12:34.347Z,49.47
2023-05-05T02:13:35.985Z,49.32
2023-05-05T02:14:37.577Z,49.20
2023-05-05T02:15:39.469Z,49.65
2023-05-05T02:16:41.370Z,49.67
2023-05-05T02:17:43.486Z,49.08
2023-05-05T02:18:46.053Z,49.15
2023-05-05T02:19:47.566Z,49.80
2023-05-05T02:20:49.130Z,49.74
2023-05-05T02:21:50.655Z,50.32
2023-05-05T02:22:52.644Z,49.65
2023-05-05T02:23:54.229Z,49.39
2023-05-05T02:24:56.286Z,49.82
2023-05-05T02:26:01.179Z,51.04
2023-05-05T02:27:03.434Z,49.45
2023-05-05T02:28:05.030Z,49.28
2023-05-05T02:29:17.596Z,49.96
2023-05-05T02:30:19.290Z,49.55
2023-05-05T02:31:21.276Z,50.05
2023-05-05T02:32:32.390Z,51.25
2023-05-05T02:33:34.767Z,50.57
2023-05-05T02:34:38.461Z,50.80
2023-05-05T02:35:40.939Z,50.81
2023-05-05T02:36:42.601Z,50.44
2023-05-05T02:37:44.982Z,50.99
2023-05-05T02:38:47.190Z,51.44
2023-05-05T02:39:59.131Z,50.69
2023-05-05T02:41:00.741Z,50.21
2023-05-05T02:42:03.099Z,49.44
2023-05-05T02:43:06.864Z,49.93
2023-05-05T02:44:08.608Z,50.26
2023-05-05T02:45:15.140Z,50.31
2023-05-05T02:46:17.702Z,51.15
2023-05-05T02:47:20.589Z,51.30
2023-05-05T02:48:22.688Z,50.76
2023-05-05T02:49:24.284Z,49.60
2023-05-05T02:50:25.854Z,50.55
2023-05-05T02:51:27.675Z,50.99
2023-05-05T02:52:29.303Z,50.68
2023-05-05T02:53:31.808Z,50.80
2023-05-05T02:54:33.665Z,50.70
2023-05-05T02:55:43.510Z,51.45
2023-05-05T02:56:48.581Z,51.63
2023-05-05T02:57:57.572Z,50.84
2023-05-05T02:59:12.848Z,50.67
2023-05-05T03:00:18.576Z,50.27
2023-05-05T03:01:45.196Z,50.86
2023-05-05T03:02:55.302Z,50.10
2023-05-05T03:04:12.087Z,50.96
2023-05-05T03:05:18.852Z,51.36
2023-05-05T03:06:21.913Z,51.16
2023-05-05T03:07:30.702Z,51.76
2023-05-05T03:08:41.031Z,51.01
2023-05-05T03:10:18.624Z,50.65
2023-05-05T03:11:33.553Z,50.15
2023-05-05T03:13:01.663Z,51.00
2023-05-05T03:14:09.016Z,50.50
2023-05-05T03:15:11.029Z,51.46
2023-05-05T03:16:12.632Z,51.01
2023-05-05T03:17:14.164Z,50.99
2023-05-05T03:18:17.682Z,51.75
2023-05-05T03:19:19.244Z,52.48
2023-05-05T03:20:20.838Z,52.63
2023-05-05T03:21:22.322Z,52.80
2023-05-05T03:22:23.866Z,52.45
2023-05-05T03:23:26.120Z,50.98
2023-05-05T03:24:28.447Z,51.29
2023-05-05T03:25:43.455Z,50.92
2023-05-05T03:26:45.671Z,51.17
2023-05-05T03:27:47.186Z,51.18
2023-05-05T03:28:49.297Z,50.99
2023-05-05T03:29:50.847Z,51.00
2023-05-05T03:30:53.081Z,50.60
2023-05-05T03:31:54.678Z,51.17
2023-05-05T03:32:56.225Z,50.88
2023-05-05T03:33:58.131Z,50.41
2023-05-05T03:34:59.640Z,50.61
2023-05-05T03:36:01.214Z,50.55
2023-05-05T03:37:02.970Z,50.57
2023-05-05T03:38:04.515Z,51.42
2023-05-05T03:39:06.161Z,52.10
2023-05-05T03:40:08.590Z,52.76
2023-05-05T03:41:10.289Z,51.71
2023-05-05T03:42:11.855Z,52.17
2023-05-05T03:43:13.790Z,52.24
2023-05-05T03:44:15.378Z,51.99
2023-05-05T03:45:17.069Z,51.88
2023-05-05T03:46:18.794Z,52.02
2023-05-05T03:47:20.486Z,52.84
2023-05-05T03:48:22.528Z,52.80
2023-05-05T03:49:24.177Z,53.15
2023-05-05T03:50:25.809Z,52.51
2023-05-05T03:51:28.076Z,52.36
2023-05-05T03:52:29.645Z,52.35
2023-05-05T03:53:31.236Z,52.20
2023-05-05T03:54:32.773Z,51.55
2023-05-05T03:55:34.318Z,51.82
2023-05-05T03:56:35.858Z,52.54
2023-05-05T03:57:37.414Z,52.67
2023-05-05T03:58:39.277Z,52.92
2023-05-05T03:59:40.860Z,53.19
2023-05-05T04:00:42.456Z,53.44
2023-05-05T04:01:46.650Z,53.28
2023-05-05T04:02:51.350Z,53.25
2023-05-05T04:03:53.353Z,52.15
2023-05-05T04:04:54.914Z,52.04
2023-05-05T04:05:56.444Z,52.13
2023-05-05T04:06:58.048Z,51.66
2023-05-05T04:07:59.823Z,51.48
2023-05-05T04:09:01.369Z,51.57
2023-05-05T04:10:02.893Z,51.45
2023-05-05T04:11:04.463Z,52.09
2023-05-05T04:12:06.522Z,52.18
2023-05-05T04:13:09.052Z,52.76
2023-05-05T04:14:10.596Z,52.97
2023-05-05T04:15:12.141Z,53.39
2023-05-05T04:16:13.878Z,53.42
2023-05-05T04:17:15.686Z,52.79
2023-05-05T04:18:17.594Z,51.99
2023-05-05T04:19:19.135Z,51.51
2023-05-05T04:20:21.391Z,51.73
2023-05-05T04:21:22.926Z,51.57
2023-05-05T04:22:24.428Z,50.99
2023-05-05T04:23:25.960Z,51.45
2023-05-05T04:24:27.494Z,51.11
2023-05-05T04:25:29.416Z,50.97
2023-05-05T04:26:30.960Z,51.05
2023-05-05T04:27:32.636Z,51.43
2023-05-05T04:28:34.333Z,50.87
2023-05-05T04:29:36.316Z,50.95
2023-05-05T04:30:37.841Z,51.13
2023-05-05T04:31:39.445Z,51.94
2023-05-05T04:32:41.079Z,50.85
2023-05-05T04:33:42.715Z,51.27
2023-05-05T04:34:44.249Z,51.41
2023-05-05T04:35:45.942Z,51.46
2023-05-05T04:36:47.609Z,51.10
2023-05-05T04:37:49.379Z,51.06
2023-05-05T04:38:51.248Z,51.76
2023-05-05T04:39:52.844Z,51.16
2023-05-05T04:40:54.396Z,51.38
2023-05-05T04:41:55.945Z,50.61
2023-05-05T04:42:57.492Z,51.20
2023-05-05T04:43:59.033Z,51.46
2023-05-05T04:45:00.718Z,51.26
2023-05-05T04:46:02.251Z,51.48
2023-05-05T04:47:04.190Z,50.83
2023-05-05T04:48:05.955Z,51.18
2023-05-05T04:49:07.600Z,50.66
2023-05-05T04:50:09.953Z,50.95
2023-05-05T04:51:12.770Z,50.50
2023-05-05T04:52:14.352Z,51.01
2023-05-05T04:53:16.089Z,50.97
2023-05-05T04:54:17.651Z,51.72
2023-05-05T04:55:19.273Z,52.01
2023-05-05T04:56:20.987Z,51.83
2023-05-05T04:57:22.521Z,52.03
2023-05-05T04:58:24.413Z,51.64
2023-05-05T04:59:25.969Z,51.66
2023-05-05T05:00:27.528Z,52.14
2023-05-05T05:01:29.083Z,51.54
2023-05-05T05:02:30.757Z,51.33
2023-05-05T05:03:32.726Z,52.88
2023-05-05T05:04:37.408Z,51.70
2023-05-05T05:05:38.925Z,52.17
2023-05-05T05:06:40.677Z,51.88
2023-05-05T05:07:42.585Z,51.59
2023-05-05T05:08:44.150Z,51.43
2023-05-05T05:09:45.872Z,51.58
2023-05-05T05:10:47.420Z,51.52
2023-05-05T05:11:49.006Z,51.62
2023-05-05T05:12:50.585Z,51.53
2023-05-05T05:13:53.044Z,51.60
2023-05-05T05:14:54.573Z,50.97
2023-05-05T05:15:56.190Z,51.35
2023-05-05T05:16:57.719Z,51.15
2023-05-05T05:17:59.371Z,50.84
2023-05-05T05:19:01.850Z,50.54
2023-05-05T05:20:05.064Z,50.46
2023-05-05T05:21:06.868Z,50.25
2023-05-05T05:22:09.027Z,49.49
2023-05-05T05:23:10.544Z,48.55
2023-05-05T05:24:12.116Z,47.99
2023-05-05T05:25:13.676Z,47.85
2023-05-05T05:26:15.257Z,48.66
2023-05-05T05:27:17.128Z,50.87
2023-05-05T05:28:18.692Z,50.08
2023-05-05T05:29:20.534Z,51.03
2023-05-05T05:30:22.254Z,50.96
2023-05-05T05:31:23.796Z,50.88
2023-05-05T05:32:25.746Z,49.34
2023-05-05T05:33:27.354Z,49.41
2023-05-05T05:34:29.009Z,48.57
2023-05-05T05:35:31.593Z,46.96
2023-05-05T05:36:33.272Z,47.93
2023-05-05T05:37:35.415Z,47.68
2023-05-05T05:38:37.102Z,46.65
2023-05-05T05:39:39.430Z,46.93
2023-05-05T05:40:42.382Z,46.63
2023-05-05T05:41:44.147Z,46.62
2023-05-05T05:42:46.069Z,46.51
2023-05-05T05:43:47.679Z,46.64
2023-05-05T05:44:49.212Z,46.50
2023-05-05T05:45:50.805Z,44.85
2023-05-05T05:46:52.683Z,45.42
2023-05-05T05:47:54.287Z,46.20
2023-05-05T05:48:56.448Z,46.53
2023-05-05T05:49:58.033Z,46.72
2023-05-05T05:50:59.665Z,46.23
2023-05-05T05:52:01.247Z,44.97
2023-05-05T05:53:02.861Z,44.29
2023-05-05T05:54:04.403Z,43.68
2023-05-05T05:55:07.188Z,43.78
2023-05-05T05:56:09.120Z,43.87
2023-05-05T05:57:11.020Z,43.52
2023-05-05T05:58:12.589Z,44.21
2023-05-05T05:59:14.114Z,45.14
2023-05-05T06:00:16.004Z,44.07
2023-05-05T06:01:17.551Z,43.53
2023-05-05T06:02:19.585Z,43.08
2023-05-05T06:03:21.233Z,42.79
2023-05-05T06:04:22.941Z,42.94
2023-05-05T06:05:24.592Z,42.66
2023-05-05T06:06:26.239Z,43.44
2023-05-05T06:07:27.779Z,43.76
2023-05-05T06:08:29.429Z,43.79
2023-05-05T06:09:30.994Z,43.90
2023-05-05T06:10:32.773Z,43.36
2023-05-05T06:11:37.036Z,42.85
2023-05-05T06:12:38.583Z,42.82
2023-05-05T06:13:40.154Z,42.62
2023-05-05T06:14:41.691Z,42.41
2023-05-05T06:15:43.444Z,41.85
2023-05-05T06:16:45.688Z,41.71
2023-05-05T06:17:47.317Z,41.79
2023-05-05T06:18:48.852Z,41.23
2023-05-05T06:19:50.410Z,41.82
2023-05-05T06:20:52.376Z,41.64
2023-05-05T06:21:54.407Z,41.33
2023-05-05T06:22:56.002Z,42.30
2023-05-05T06:23:57.511Z,42.25
2023-05-05T06:24:59.076Z,40.74
2023-05-05T06:26:00.666Z,40.65
2023-05-05T06:27:02.916Z,40.77
2023-05-05T06:28:05.690Z,40.59
2023-05-05T06:29:07.354Z,40.56
2023-05-05T06:30:09.755Z,40.70
2023-05-05T06:31:13.217Z,40.57
2023-05-05T06:32:15.564Z,40.89
2023-05-05T06:33:17.119Z,41.22
2023-05-05T06:34:18.672Z,40.17
2023-05-05T06:35:20.757Z,39.80
2023-05-05T06:36:22.705Z,39.39
2023-05-05T06:37:24.243Z,39.52
2023-05-05T06:38:25.855Z,39.11
2023-05-05T06:39:27.448Z,38.99
2023-05-05T06:40:29.037Z,39.38
2023-05-05T06:41:30.967Z,38.82
2023-05-05T06:42:32.632Z,39.69
2023-05-05T06:43:34.272Z,39.03
2023-05-05T06:44:36.504Z,39.88
2023-05-05T06:45:38.082Z,39.25
2023-05-05T06:46:39.975Z,39.05
2023-05-05T06:47:42.430Z,39.42
2023-05-05T06:48:44.065Z,38.95
2023-05-05T06:49:45.635Z,39.03
2023-05-05T06:50:47.384Z,39.15
2023-05-05T06:51:49.476Z,38.61
2023-05-05T06:52:52.511Z,39.47
2023-05-05T06:53:54.068Z,38.63
2023-05-05T06:54:55.676Z,39.13
2023-05-05T06:55:57.568Z,38.97
2023-05-05T06:56:59.793Z,39.05
2023-05-05T06:58:01.397Z,38.90
2023-05-05T06:59:02.918Z,38.33
2023-05-05T07:00:06.072Z,38.52
2023-05-05T07:01:08.256Z,38.38
2023-05-05T07:02:09.795Z,38.71
2023-05-05T07:03:11.738Z,39.02
2023-05-05T07:04:13.430Z,38.70
2023-05-05T07:05:15.026Z,38.38
2023-05-05T07:06:16.900Z,38.07
2023-05-05T07:07:18.437Z,38.67
2023-05-05T07:08:19.967Z,38.61
2023-05-05T07:09:21.561Z,38.12
2023-05-05T07:10:23.453Z,38.34
2023-05-05T07:11:25.594Z,37.97
2023-05-05T07:12:29.385Z,37.49
2023-05-05T07:13:30.919Z,37.39
2023-05-05T07:14:32.510Z,37.57
2023-05-05T07:15:34.638Z,38.18
2023-05-05T07:16:37.307Z,38.48
2023-05-05T07:17:38.926Z,37.44
2023-05-05T07:18:40.579Z,37.70
2023-05-05T07:19:42.117Z,37.79
2023-05-05T07:20:44.590Z,37.34
2023-05-05T07:21:47.267Z,37.04
2023-05-05T07:22:48.809Z,36.90
2023-05-05T07:23:50.796Z,37.33
2023-05-05T07:24:53.388Z,37.97
2023-05-05T07:25:55.485Z,37.65
2023-05-05T07:26:57.487Z,38.30
2023-05-05T07:27:59.022Z,37.47
2023-05-05T07:29:02.177Z,37.62
2023-05-05T07:30:07.095Z,37.20
2023-05-05T07:31:11.787Z,36.84
2023-05-05T07:32:13.448Z,36.58
2023-05-05T07:33:15.598Z,36.80
2023-05-05T07:34:17.152Z,36.97
2023-05-05T07:35:18.799Z,37.76
2023-05-05T07:36:20.439Z,36.60
2023-05-05T07:37:22.020Z,36.35
2023-05-05T07:38:25.358Z,36.15
2023-05-05T07:39:26.925Z,36.23
2023-05-05T07:40:28.420Z,36.50
2023-05-05T07:41:30.292Z,37.16
2023-05-05T07:42:31.861Z,36.41
2023-05-05T07:43:33.580Z,37.03
2023-05-05T07:44:35.124Z,37.04
2023-05-05T07:45:36.990Z,36.48
2023-05-05T07:46:38.574Z,35.97
2023-05-05T07:47:40.829Z,35.96
2023-05-05T07:48:42.441Z,35.75
2023-05-05T07:49:43.995Z,35.99
2023-05-05T07:50:45.675Z,36.26
2023-05-05T07:51:50.053Z,36.51
2023-05-05T07:52:56.343Z,36.95
2023-05-05T07:54:07.635Z,36.56
2023-05-05T07:55:09.400Z,36.60
2023-05-05T07:56:10.997Z,36.77
2023-05-05T07:57:12.535Z,36.62
2023-05-05T07:58:14.113Z,36.76
2023-05-05T07:59:16.022Z,36.56
2023-05-05T08:00:19.782Z,37.07
2023-05-05T08:01:21.668Z,37.10
2023-05-05T08:02:23.384Z,36.57
2023-05-05T08:03:25.326Z,36.19
2023-05-05T08:04:27.034Z,35.53
2023-05-05T08:05:28.924Z,35.34
2023-05-05T08:06:31.594Z,36.05
2023-05-05T08:07:33.109Z,36.09
2023-05-05T08:08:34.705Z,36.38
2023-05-05T08:09:36.774Z,36.13
2023-05-05T08:10:38.638Z,35.83
2023-05-05T08:11:40.176Z,35.94
2023-05-05T08:12:41.865Z,35.88
2023-05-05T08:13:44.169Z,35.82
2023-05-05T08:14:45.808Z,35.49
2023-05-05T08:15:47.833Z,35.25
2023-05-05T08:16:49.478Z,35.82
2023-05-05T08:17:52.077Z,35.14
2023-05-05T08:18:53.734Z,35.34
2023-05-05T08:19:55.259Z,35.29
2023-05-05T08:20:57.130Z,35.46
2023-05-05T08:22:01.120Z,36.15
2023-05-05T08:23:03.043Z,36.36
2023-05-05T08:24:04.589Z,36.08
2023-05-05T08:25:06.961Z,36.21
2023-05-05T08:26:09.530Z,36.80
2023-05-05T08:27:11.328Z,36.44
2023-05-05T08:28:13.016Z,36.49
2023-05-05T08:29:14.566Z,36.02
2023-05-05T08:30:19.901Z,36.02
2023-05-05T08:31:21.993Z,35.62
2023-05-05T08:32:23.614Z,35.40
2023-05-05T08:34:26.846Z,35.67
2023-05-05T08:35:28.913Z,35.45
2023-05-05T08:36:31.153Z,34.75
2023-05-05T08:37:32.853Z,34.72
2023-05-05T08:38:34.420Z,35.40
2023-05-05T08:39:35.971Z,35.06
2023-05-05T08:40:38.297Z,35.00
2023-05-05T08:41:39.950Z,35.95
2023-05-05T08:42:42.179Z,35.29
2023-05-05T08:43:44.458Z,35.75
2023-05-05T08:44:46.526Z,36.00
2023-05-05T08:45:48.065Z,36.51
2023-05-05T08:46:49.632Z,36.17
2023-05-05T08:47:51.227Z,35.90
2023-05-05T08:48:52.837Z,35.48
2023-05-05T08:49:54.548Z,35.60
2023-05-05T08:50:59.753Z,35.66
2023-05-05T08:52:04.193Z,36.18
2023-05-05T08:53:10.297Z,36.38
2023-05-05T08:54:20.854Z,36.20
2023-05-05T08:55:26.899Z,36.43
2023-05-05T08:56:37.351Z,36.75
2023-05-05T08:57:45.465Z,36.40
2023-05-05T08:58:47.196Z,36.42
2023-05-05T08:59:49.013Z,36.20
2023-05-05T09:00:51.274Z,36.42
2023-05-05T09:01:52.996Z,36.43
2023-05-05T09:02:56.571Z,36.42
2023-05-05T09:03:58.993Z,36.80
2023-05-05T09:05:05.096Z,36.76
2023-05-05T09:06:07.207Z,36.83
2023-05-05T09:07:09.010Z,36.94
2023-05-05T09:08:11.077Z,36.97
2023-05-05T09:09:12.631Z,36.97
2023-05-05T09:10:14.211Z,37.55
2023-05-05T09:11:15.893Z,37.71
2023-05-05T09:12:18.759Z,37.64
2023-05-05T09:13:20.420Z,36.93
2023-05-05T09:14:21.967Z,36.90
2023-05-05T09:15:23.876Z,37.02
2023-05-05T09:16:25.517Z,37.79
2023-05-05T09:17:27.188Z,38.04
2023-05-05T09:18:28.882Z,38.33
2023-05-05T09:19:30.446Z,38.27
2023-05-05T09:20:36.045Z,38.09
2023-05-05T09:21:38.147Z,37.75
2023-05-05T09:22:40.488Z,37.90
2023-05-05T09:23:42.042Z,38.51
2023-05-05T09:24:54.687Z,38.63
2023-05-05T09:26:06.439Z,38.13
2023-05-05T09:27:21.259Z,37.63
2023-05-05T09:28:22.771Z,37.20
2023-05-05T09:29:24.646Z,36.92
2023-05-05T09:30:27.399Z,37.82
2023-05-05T09:31:30.767Z,38.28
2023-05-05T09:32:51.145Z,39.40
2023-05-05T09:33:52.728Z,39.19
2023-05-05T09:34:59.051Z,39.21
2023-05-05T09:36:00.820Z,38.41
2023-05-05T09:37:02.349Z,37.33
2023-05-05T09:38:11.555Z,37.49
2023-05-05T09:39:19.285Z,37.11
2023-05-05T09:40:21.717Z,37.02
2023-05-05T09:41:49.514Z,36.78
2023-05-05T09:43:00.952Z,36.76
2023-05-05T09:44:02.643Z,37.51
2023-05-05T09:45:26.336Z,37.75
2023-05-05T09:46:28.045Z,37.10
2023-05-05T09:47:36.417Z,37.88
2023-05-05T09:48:37.979Z,37.63
2023-05-05T09:49:39.600Z,37.78
2023-05-05T09:50:44.914Z,37.84
2023-05-05T09:51:47.136Z,37.77
2023-05-05T09:52:58.483Z,38.10
2023-05-05T09:53:59.996Z,38.60
2023-05-05T09:55:01.675Z,38.76
2023-05-05T09:56:03.244Z,38.83
2023-05-05T09:57:04.769Z,38.42
2023-05-05T09:58:23.751Z,37.94
2023-05-05T09:59:25.718Z,37.81
2023-05-05T10:00:40.073Z,38.04
2023-05-05T10:01:43.747Z,38.22
2023-05-05T10:02:45.525Z,37.99
2023-05-05T10:03:53.368Z,38.43
2023-05-05T10:05:05.107Z,38.11
2023-05-05T10:06:07.933Z,37.93
2023-05-05T10:07:18.704Z,38.06
2023-05-05T10:08:21.552Z,37.94
2023-05-05T10:09:23.402Z,38.99
2023-05-05T10:10:27.498Z,38.03
2023-05-05T10:11:30.306Z,38.11
2023-05-05T10:12:32.517Z,39.27
2023-05-05T10:13:40.002Z,39.48
2023-05-05T10:14:41.532Z,39.70
2023-05-05T10:15:44.881Z,39.70
2023-05-05T10:16:49.043Z,39.18
2023-05-05T10:18:05.913Z,38.75
2023-05-05T10:19:09.411Z,37.78
2023-05-05T10:20:11.474Z,38.24
2023-05-05T10:21:13.060Z,37.91
2023-05-05T10:22:14.652Z,37.96
2023-05-05T10:23:18.254Z,38.06
2023-05-05T10:24:39.269Z,38.03
2023-05-05T10:25:54.520Z,37.84
2023-05-05T10:26:56.974Z,38.40
2023-05-05T10:28:00.229Z,38.32
2023-05-05T10:29:01.880Z,37.66
2023-05-05T10:30:07.620Z,37.70
2023-05-05T10:31:24.485Z,37.92
2023-05-05T10:33:45.105Z,37.22
2023-05-05T10:34:58.634Z,37.52
2023-05-05T10:36:05.314Z,37.49
2023-05-05T10:37:07.123Z,36.34
2023-05-05T10:38:09.012Z,36.29
2023-05-05T10:39:10.917Z,36.17
2023-05-05T10:40:12.598Z,36.67
2023-05-05T10:41:14.213Z,36.61
2023-05-05T10:42:16.158Z,37.23
2023-05-05T10:43:17.738Z,36.94
2023-05-05T10:44:19.401Z,36.45
2023-05-05T10:45:21.155Z,35.86
2023-05-05T10:46:22.780Z,36.10
2023-05-05T10:47:24.509Z,36.99
2023-05-05T10:48:37.890Z,37.34
2023-05-05T10:50:02.879Z,36.39
2023-05-05T10:51:40.589Z,35.99
2023-05-05T10:53:05.536Z,35.60
2023-05-05T10:54:28.307Z,35.14
2023-05-05T10:55:32.701Z,36.21
2023-05-05T10:56:34.237Z,36.14
2023-05-05T10:57:39.171Z,36.47
2023-05-05T10:58:58.368Z,35.65
2023-05-05T11:00:01.669Z,35.70
2023-05-05T11:01:03.922Z,36.05
2023-05-05T11:02:28.018Z,36.72
2023-05-05T11:03:29.984Z,36.24
2023-05-05T11:04:31.905Z,37.24
2023-05-05T11:05:33.458Z,37.54
2023-05-05T11:06:34.946Z,37.37
2023-05-05T11:07:37.310Z,37.54
2023-05-05T11:08:42.689Z,38.48
2023-05-05T11:10:06.781Z,38.50
2023-05-05T11:11:10.349Z,37.43
2023-05-05T11:12:13.824Z,37.53
2023-05-05T11:13:15.477Z,37.96
2023-05-05T11:14:20.820Z,37.74
2023-05-05T11:15:22.395Z,37.21
2023-05-05T11:16:43.657Z,37.13
2023-05-05T11:17:48.704Z,37.46
2023-05-05T11:18:50.713Z,37.58
2023-05-05T11:19:53.325Z,38.29
2023-05-05T11:20:57.542Z,37.43
2023-05-05T11:22:02.180Z,37.36
2023-05-05T11:23:03.615Z,37.94
2023-05-05T11:24:27.438Z,37.74
2023-05-05T11:25:34.680Z,37.37
2023-05-05T11:26:49.284Z,37.67
2023-05-05T11:28:12.279Z,37.98
2023-05-05T11:29:14.124Z,38.52
2023-05-05T11:30:16.892Z,38.96
2023-05-05T11:31:18.411Z,37.71
2023-05-05T11:32:20.170Z,37.86
2023-05-05T11:33:26.109Z,37.82
2023-05-05T11:34:27.948Z,38.62
2023-05-05T11:35:56.239Z,38.82
2023-05-05T11:37:02.538Z,37.77
2023-05-05T11:38:04.155Z,38.11
2023-05-05T11:39:17.965Z,38.95
2023-05-05T11:40:24.363Z,38.18
2023-05-05T11:41:34.660Z,38.39
2023-05-05T11:42:36.193Z,38.77
2023-05-05T11:43:37.872Z,38.88
2023-05-05T11:44:39.913Z,38.54
2023-05-05T11:45:41.410Z,39.41
2023-05-05T11:46:51.725Z,40.27
2023-05-05T11:47:53.252Z,38.67
2023-05-05T11:48:54.867Z,38.60
2023-05-05T11:49:56.845Z,38.72
2023-05-05T11:50:58.387Z,38.96
2023-05-05T11:52:01.242Z,39.32
2023-05-05T11:53:02.622Z,38.77
2023-05-05T11:54:04.147Z,39.46
2023-05-05T11:55:06.817Z,39.28
2023-05-05T11:56:09.581Z,39.00
2023-05-05T11:57:11.199Z,39.13
2023-05-05T11:58:19.297Z,39.24
2023-05-05T11:59:20.836Z,39.88
2023-05-05T12:00:31.674Z,41.44
2023-05-05T12:01:33.193Z,40.17
2023-05-05T12:02:34.889Z,39.84
2023-05-05T12:03:39.612Z,40.26
2023-05-05T12:04:41.399Z,40.24
2023-05-05T12:05:43.455Z,40.19
2023-05-05T12:06:45.569Z,40.46
2023-05-05T12:07:47.119Z,40.45
2023-05-05T12:08:48.665Z,40.31
2023-05-05T12:09:50.329Z,40.22
2023-05-05T12:10:52.382Z,41.19
2023-05-05T12:11:58.013Z,40.73
2023-05-05T12:12:59.563Z,41.21
2023-05-05T12:14:10.861Z,41.21
2023-05-05T12:15:12.571Z,40.46
2023-05-05T12:16:15.843Z,40.66
2023-05-05T12:17:19.128Z,40.80
2023-05-05T12:18:20.823Z,39.94
2023-05-05T12:19:22.458Z,40.47
2023-05-05T12:20:32.303Z,41.30
2023-05-05T12:21:34.748Z,41.28
2023-05-05T12:22:36.853Z,40.77
2023-05-05T12:23:39.078Z,40.87
2023-05-05T12:24:40.680Z,40.78
2023-05-05T12:25:42.257Z,40.95
2023-05-05T12:26:43.805Z,40.88
2023-05-05T12:27:52.507Z,41.32
2023-05-05T12:28:54.344Z,41.14
2023-05-05T12:29:56.749Z,42.01
2023-05-05T12:30:58.875Z,41.88
2023-05-05T12:32:00.749Z,42.25
2023-05-05T12:33:06.838Z,41.79
2023-05-05T12:34:09.300Z,42.53
2023-05-05T12:35:10.885Z,42.79
2023-05-05T12:36:12.914Z,42.25
2023-05-05T12:37:16.881Z,42.73
2023-05-05T12:38:18.419Z,42.80
2023-05-05T12:39:20.597Z,42.33
2023-05-05T12:40:50.433Z,42.17
2023-05-05T12:41:51.951Z,41.82
2023-05-05T12:42:53.779Z,42.43
2023-05-05T12:43:58.742Z,42.58
2023-05-05T12:45:00.398Z,42.28
2023-05-05T12:46:03.036Z,43.06
2023-05-05T12:47:04.907Z,42.77
2023-05-05T12:48:22.414Z,43.12
2023-05-05T12:49:23.952Z,42.28
2023-05-05T12:50:31.789Z,42.35
2023-05-05T12:51:37.021Z,42.19
2023-05-05T12:52:40.828Z,42.55
2023-05-05T12:53:42.471Z,42.43
2023-05-05T12:54:54.870Z,42.76
2023-05-05T12:55:56.702Z,42.63
2023-05-05T12:56:59.280Z,42.79
2023-05-05T12:58:04.708Z,42.63
2023-05-05T12:59:08.039Z,43.01
2023-05-05T13:00:16.331Z,43.07
2023-05-05T13:01:17.854Z,43.11
2023-05-05T13:02:20.695Z,43.32
2023-05-05T13:03:22.351Z,43.22
2023-05-05T13:04:24.791Z,43.13
2023-05-05T13:05:33.211Z,42.83
2023-05-05T13:06:35.755Z,43.08
2023-05-05T13:07:49.984Z,43.35
2023-05-05T13:08:52.150Z,43.50
2023-05-05T13:10:08.280Z,42.95
2023-05-05T13:11:09.825Z,43.20
2023-05-05T13:12:12.404Z,43.52
2023-05-05T13:13:14.554Z,43.55
2023-05-05T13:14:16.146Z,43.75
2023-05-05T13:15:17.710Z,43.60
2023-05-05T13:16:19.421Z,44.10
2023-05-05T13:17:21.044Z,43.40
2023-05-05T13:18:23.082Z,43.92
2023-05-05T13:19:25.108Z,44.03
2023-05-05T13:20:26.984Z,43.74
2023-05-05T13:21:28.572Z,43.39
2023-05-05T13:22:30.109Z,43.34
2023-05-05T13:23:31.607Z,44.24
2023-05-05T13:24:46.427Z,44.31
2023-05-05T13:25:52.871Z,43.11
2023-05-05T13:26:54.546Z,43.55
2023-05-05T13:27:56.092Z,43.96
2023-05-05T13:28:57.637Z,43.64
2023-05-05T13:29:59.187Z,43.75
2023-05-05T13:31:00.798Z,43.29
2023-05-05T13:32:02.476Z,42.84
2023-05-05T13:33:04.327Z,42.25
2023-05-05T13:34:05.904Z,42.12
2023-05-05T13:35:08.209Z,41.71
2023-05-05T13:36:10.053Z,41.88
2023-05-05T13:37:11.552Z,42.09
2023-05-05T13:38:13.138Z,42.05
2023-05-05T13:39:14.769Z,42.40
2023-05-05T13:40:16.427Z,42.22
2023-05-05T13:41:18.302Z,42.34
2023-05-05T13:42:20.300Z,42.17
2023-05-05T13:43:22.694Z,42.20
2023-05-05T13:44:24.222Z,42.39
2023-05-05T13:45:25.746Z,40.78